sensor_id;sensor_type;location;lat;lon;timestamp;P1;durP1;ratioP1;P2;durP2;ratioP2
57856;SDS011;43683;48.650;9.290;2022-08-19T00:00:14;23.35;;;14.88;;
57856;SDS011;43683;48.650;9.290;2022-08-19T00:02:40;24.10;;;15.80;;
57856;SDS011;43683;48.650;9.290;2022-08-19T00:05:07;22.70;;;15.20;;
57856;SDS011;43683;48.650;9.290;2022-08-19T00:07:33;25.98;;;15.35;;
57856;SDS011;43683;48.650;9.290;2022-08-19T00:09:59;23.75;;;14.98;;
57856;SDS011;43683;48.650;9.290;2022-08-19T00:12:25;24.13;;;15.50;;
57856;SDS011;43683;48.650;9.290;2022-08-19T00:14:51;24.75;;;14.50;;
57856;SDS011;43683;48.650;9.290;2022-08-19T00:19:44;21.02;;;13.40;;
57856;SDS011;43683;48.650;9.290;2022-08-19T00:22:10;22.35;;;14.15;;
57856;SDS011;43683;48.650;9.290;2022-08-19T00:24:35;22.67;;;14.40;;
57856;SDS011;43683;48.650;9.290;2022-08-19T00:29:29;21.55;;;13.55;;
57856;SDS011;43683;48.650;9.290;2022-08-19T00:31:55;19.35;;;12.68;;
57856;SDS011;43683;48.650;9.290;2022-08-19T00:34:23;17.20;;;12.23;;
57856;SDS011;43683;48.650;9.290;2022-08-19T00:36:49;17.77;;;12.05;;
57856;SDS011;43683;48.650;9.290;2022-08-19T00:39:15;17.08;;;11.55;;
57856;SDS011;43683;48.650;9.290;2022-08-19T00:41:42;19.45;;;12.30;;
57856;SDS011;43683;48.650;9.290;2022-08-19T00:44:19;21.20;;;13.48;;
57856;SDS011;43683;48.650;9.290;2022-08-19T00:46:47;20.70;;;12.98;;
57856;SDS011;43683;48.650;9.290;2022-08-19T00:49:15;21.65;;;12.57;;
57856;SDS011;43683;48.650;9.290;2022-08-19T00:51:43;18.17;;;12.07;;
57856;SDS011;43683;48.650;9.290;2022-08-19T00:54:11;20.67;;;12.80;;
57856;SDS011;43683;48.650;9.290;2022-08-19T00:56:38;22.35;;;13.13;;
57856;SDS011;43683;48.650;9.290;2022-08-19T00:59:05;21.20;;;12.65;;
57856;SDS011;43683;48.650;9.290;2022-08-19T01:01:37;18.92;;;11.85;;
57856;SDS011;43683;48.650;9.290;2022-08-19T01:04:05;20.83;;;11.95;;
57856;SDS011;43683;48.650;9.290;2022-08-19T01:06:31;20.90;;;13.68;;
57856;SDS011;43683;48.650;9.290;2022-08-19T01:08:58;23.95;;;14.30;;
57856;SDS011;43683;48.650;9.290;2022-08-19T01:11:25;24.10;;;12.93;;
57856;SDS011;43683;48.650;9.290;2022-08-19T01:13:52;22.23;;;13.35;;
57856;SDS011;43683;48.650;9.290;2022-08-19T01:16:19;23.08;;;13.38;;
57856;SDS011;43683;48.650;9.290;2022-08-19T01:18:47;22.08;;;13.55;;
57856;SDS011;43683;48.650;9.290;2022-08-19T01:21:25;22.33;;;13.00;;
57856;SDS011;43683;48.650;9.290;2022-08-19T01:23:56;22.90;;;12.98;;
57856;SDS011;43683;48.650;9.290;2022-08-19T01:26:22;22.45;;;13.90;;
57856;SDS011;43683;48.650;9.290;2022-08-19T01:28:50;20.25;;;13.80;;
57856;SDS011;43683;48.650;9.290;2022-08-19T01:31:23;23.15;;;13.13;;
57856;SDS011;43683;48.650;9.290;2022-08-19T01:33:51;20.33;;;13.10;;
57856;SDS011;43683;48.650;9.290;2022-08-19T01:36:27;18.63;;;12.15;;
57856;SDS011;43683;48.650;9.290;2022-08-19T01:38:55;19.40;;;12.17;;
57856;SDS011;43683;48.650;9.290;2022-08-19T01:41:21;21.10;;;12.63;;
57856;SDS011;43683;48.650;9.290;2022-08-19T01:43:48;20.50;;;13.60;;
57856;SDS011;43683;48.650;9.290;2022-08-19T01:46:14;19.92;;;12.50;;
57856;SDS011;43683;48.650;9.290;2022-08-19T01:48:41;20.42;;;13.15;;
57856;SDS011;43683;48.650;9.290;2022-08-19T01:51:07;18.98;;;12.07;;
57856;SDS011;43683;48.650;9.290;2022-08-19T01:53:33;22.65;;;13.05;;
57856;SDS011;43683;48.650;9.290;2022-08-19T01:56:00;19.90;;;12.43;;
57856;SDS011;43683;48.650;9.290;2022-08-19T01:58:31;18.95;;;11.98;;
57856;SDS011;43683;48.650;9.290;2022-08-19T02:01:18;25.40;;;12.90;;
57856;SDS011;43683;48.650;9.290;2022-08-19T02:03:44;21.13;;;12.18;;
57856;SDS011;43683;48.650;9.290;2022-08-19T02:06:10;21.20;;;11.88;;
57856;SDS011;43683;48.650;9.290;2022-08-19T02:08:38;18.48;;;11.98;;
57856;SDS011;43683;48.650;9.290;2022-08-19T02:11:05;19.63;;;11.90;;
57856;SDS011;43683;48.650;9.290;2022-08-19T02:13:32;21.73;;;12.85;;
57856;SDS011;43683;48.650;9.290;2022-08-19T02:15:59;18.80;;;11.48;;
57856;SDS011;43683;48.650;9.290;2022-08-19T02:18:25;22.65;;;12.05;;
57856;SDS011;43683;48.650;9.290;2022-08-19T02:20:51;23.23;;;13.27;;
57856;SDS011;43683;48.650;9.290;2022-08-19T02:23:17;22.63;;;12.73;;
57856;SDS011;43683;48.650;9.290;2022-08-19T02:25:44;20.67;;;12.02;;
57856;SDS011;43683;48.650;9.290;2022-08-19T02:28:11;20.65;;;11.80;;
57856;SDS011;43683;48.650;9.290;2022-08-19T02:30:37;19.63;;;12.65;;
57856;SDS011;43683;48.650;9.290;2022-08-19T02:33:03;22.73;;;12.38;;
57856;SDS011;43683;48.650;9.290;2022-08-19T02:35:29;20.80;;;12.77;;
57856;SDS011;43683;48.650;9.290;2022-08-19T02:37:55;19.85;;;12.43;;
57856;SDS011;43683;48.650;9.290;2022-08-19T02:40:40;20.02;;;12.95;;
57856;SDS011;43683;48.650;9.290;2022-08-19T02:43:14;21.90;;;12.95;;
57856;SDS011;43683;48.650;9.290;2022-08-19T02:45:40;21.52;;;13.80;;
57856;SDS011;43683;48.650;9.290;2022-08-19T02:48:06;20.38;;;12.70;;
57856;SDS011;43683;48.650;9.290;2022-08-19T02:50:32;22.92;;;14.05;;
57856;SDS011;43683;48.650;9.290;2022-08-19T02:52:58;21.20;;;11.70;;
57856;SDS011;43683;48.650;9.290;2022-08-19T02:55:23;19.73;;;11.82;;
57856;SDS011;43683;48.650;9.290;2022-08-19T02:57:49;22.13;;;12.85;;
57856;SDS011;43683;48.650;9.290;2022-08-19T03:00:15;21.83;;;11.55;;
57856;SDS011;43683;48.650;9.290;2022-08-19T03:02:41;21.70;;;12.20;;
57856;SDS011;43683;48.650;9.290;2022-08-19T03:05:07;21.15;;;13.00;;
57856;SDS011;43683;48.650;9.290;2022-08-19T03:07:34;23.25;;;12.65;;
57856;SDS011;43683;48.650;9.290;2022-08-19T03:10:00;22.60;;;11.73;;
57856;SDS011;43683;48.650;9.290;2022-08-19T03:12:26;21.33;;;12.13;;
57856;SDS011;43683;48.650;9.290;2022-08-19T03:14:51;23.00;;;12.50;;
57856;SDS011;43683;48.650;9.290;2022-08-19T03:17:17;21.23;;;12.18;;
57856;SDS011;43683;48.650;9.290;2022-08-19T03:19:43;23.15;;;12.07;;
57856;SDS011;43683;48.650;9.290;2022-08-19T03:22:09;21.45;;;12.38;;
57856;SDS011;43683;48.650;9.290;2022-08-19T03:24:35;18.95;;;11.15;;
57856;SDS011;43683;48.650;9.290;2022-08-19T03:27:00;21.88;;;12.57;;
57856;SDS011;43683;48.650;9.290;2022-08-19T03:29:28;22.20;;;12.70;;
57856;SDS011;43683;48.650;9.290;2022-08-19T03:31:55;20.38;;;12.80;;
57856;SDS011;43683;48.650;9.290;2022-08-19T03:34:23;21.52;;;12.05;;
57856;SDS011;43683;48.650;9.290;2022-08-19T03:36:51;22.23;;;12.70;;
57856;SDS011;43683;48.650;9.290;2022-08-19T03:39:19;21.92;;;12.77;;
57856;SDS011;43683;48.650;9.290;2022-08-19T03:41:45;22.08;;;13.77;;
57856;SDS011;43683;48.650;9.290;2022-08-19T03:44:12;23.45;;;11.90;;
57856;SDS011;43683;48.650;9.290;2022-08-19T03:46:38;20.77;;;13.20;;
57856;SDS011;43683;48.650;9.290;2022-08-19T03:49:04;23.35;;;13.02;;
57856;SDS011;43683;48.650;9.290;2022-08-19T03:51:33;23.48;;;12.77;;
57856;SDS011;43683;48.650;9.290;2022-08-19T03:54:01;21.75;;;12.38;;
57856;SDS011;43683;48.650;9.290;2022-08-19T03:56:29;23.90;;;13.13;;
57856;SDS011;43683;48.650;9.290;2022-08-19T03:58:55;22.70;;;13.77;;
57856;SDS011;43683;48.650;9.290;2022-08-19T04:03:51;21.55;;;12.63;;
57856;SDS011;43683;48.650;9.290;2022-08-19T04:06:22;22.80;;;12.25;;
57856;SDS011;43683;48.650;9.290;2022-08-19T04:08:51;24.50;;;13.88;;
57856;SDS011;43683;48.650;9.290;2022-08-19T04:11:20;24.40;;;14.25;;
57856;SDS011;43683;48.650;9.290;2022-08-19T04:13:48;24.33;;;14.50;;
57856;SDS011;43683;48.650;9.290;2022-08-19T04:16:16;25.10;;;14.82;;
57856;SDS011;43683;48.650;9.290;2022-08-19T04:18:42;22.88;;;13.95;;
57856;SDS011;43683;48.650;9.290;2022-08-19T04:21:08;23.52;;;13.40;;
57856;SDS011;43683;48.650;9.290;2022-08-19T04:23:39;26.40;;;13.77;;
57856;SDS011;43683;48.650;9.290;2022-08-19T04:26:05;24.02;;;13.85;;
57856;SDS011;43683;48.650;9.290;2022-08-19T04:28:31;26.48;;;15.13;;
57856;SDS011;43683;48.650;9.290;2022-08-19T04:30:56;27.40;;;14.50;;
57856;SDS011;43683;48.650;9.290;2022-08-19T04:33:24;25.63;;;16.50;;
57856;SDS011;43683;48.650;9.290;2022-08-19T04:35:51;30.73;;;17.13;;
57856;SDS011;43683;48.650;9.290;2022-08-19T04:40:45;32.15;;;16.42;;
57856;SDS011;43683;48.650;9.290;2022-08-19T04:43:31;25.30;;;14.70;;
57856;SDS011;43683;48.650;9.290;2022-08-19T04:45:58;26.08;;;16.80;;
57856;SDS011;43683;48.650;9.290;2022-08-19T04:48:30;29.30;;;16.20;;
57856;SDS011;43683;48.650;9.290;2022-08-19T04:50:57;25.70;;;15.85;;
57856;SDS011;43683;48.650;9.290;2022-08-19T04:53:26;26.83;;;15.10;;
57856;SDS011;43683;48.650;9.290;2022-08-19T04:55:54;29.27;;;16.35;;
57856;SDS011;43683;48.650;9.290;2022-08-19T04:58:24;25.38;;;15.48;;
57856;SDS011;43683;48.650;9.290;2022-08-19T05:00:51;26.40;;;15.60;;
57856;SDS011;43683;48.650;9.290;2022-08-19T05:03:17;25.55;;;15.38;;
57856;SDS011;43683;48.650;9.290;2022-08-19T05:05:46;30.23;;;16.92;;
57856;SDS011;43683;48.650;9.290;2022-08-19T05:08:16;26.00;;;15.80;;
57856;SDS011;43683;48.650;9.290;2022-08-19T05:10:49;27.88;;;15.15;;
57856;SDS011;43683;48.650;9.290;2022-08-19T05:13:16;27.67;;;15.38;;
57856;SDS011;43683;48.650;9.290;2022-08-19T05:15:44;26.75;;;16.05;;
57856;SDS011;43683;48.650;9.290;2022-08-19T05:18:17;26.38;;;14.85;;
57856;SDS011;43683;48.650;9.290;2022-08-19T05:21:05;29.17;;;16.13;;
57856;SDS011;43683;48.650;9.290;2022-08-19T05:23:51;27.52;;;15.25;;
57856;SDS011;43683;48.650;9.290;2022-08-19T05:26:16;28.10;;;15.13;;
57856;SDS011;43683;48.650;9.290;2022-08-19T05:28:42;27.92;;;17.25;;
57856;SDS011;43683;48.650;9.290;2022-08-19T05:31:07;27.52;;;16.02;;
57856;SDS011;43683;48.650;9.290;2022-08-19T05:33:33;27.33;;;15.57;;
57856;SDS011;43683;48.650;9.290;2022-08-19T05:35:58;25.25;;;15.35;;
57856;SDS011;43683;48.650;9.290;2022-08-19T05:38:24;25.75;;;14.52;;
57856;SDS011;43683;48.650;9.290;2022-08-19T05:40:51;26.67;;;15.80;;
57856;SDS011;43683;48.650;9.290;2022-08-19T05:43:16;28.48;;;15.60;;
57856;SDS011;43683;48.650;9.290;2022-08-19T05:45:42;27.55;;;15.57;;
57856;SDS011;43683;48.650;9.290;2022-08-19T05:48:12;27.00;;;16.25;;
57856;SDS011;43683;48.650;9.290;2022-08-19T05:50:38;25.33;;;16.13;;
57856;SDS011;43683;48.650;9.290;2022-08-19T05:53:06;23.92;;;15.43;;
57856;SDS011;43683;48.650;9.290;2022-08-19T05:55:33;25.55;;;14.98;;
57856;SDS011;43683;48.650;9.290;2022-08-19T05:58:00;24.08;;;14.80;;
57856;SDS011;43683;48.650;9.290;2022-08-19T06:00:26;24.13;;;15.50;;
57856;SDS011;43683;48.650;9.290;2022-08-19T06:02:52;24.83;;;15.18;;
57856;SDS011;43683;48.650;9.290;2022-08-19T06:05:19;25.13;;;14.85;;
57856;SDS011;43683;48.650;9.290;2022-08-19T06:07:45;28.23;;;14.88;;
57856;SDS011;43683;48.650;9.290;2022-08-19T06:10:11;28.30;;;17.35;;
57856;SDS011;43683;48.650;9.290;2022-08-19T06:12:36;27.40;;;15.52;;
57856;SDS011;43683;48.650;9.290;2022-08-19T06:15:05;25.15;;;14.15;;
57856;SDS011;43683;48.650;9.290;2022-08-19T06:17:36;27.63;;;15.98;;
57856;SDS011;43683;48.650;9.290;2022-08-19T06:20:06;27.27;;;15.10;;
57856;SDS011;43683;48.650;9.290;2022-08-19T06:22:49;28.83;;;15.75;;
57856;SDS011;43683;48.650;9.290;2022-08-19T06:25:16;28.42;;;17.05;;
57856;SDS011;43683;48.650;9.290;2022-08-19T06:27:42;29.42;;;17.38;;
57856;SDS011;43683;48.650;9.290;2022-08-19T06:30:09;28.88;;;16.70;;
57856;SDS011;43683;48.650;9.290;2022-08-19T06:32:36;26.38;;;16.70;;
57856;SDS011;43683;48.650;9.290;2022-08-19T06:35:02;28.15;;;16.20;;
57856;SDS011;43683;48.650;9.290;2022-08-19T06:37:28;28.08;;;15.82;;
57856;SDS011;43683;48.650;9.290;2022-08-19T06:39:54;29.48;;;16.85;;
57856;SDS011;43683;48.650;9.290;2022-08-19T06:42:19;25.60;;;15.10;;
57856;SDS011;43683;48.650;9.290;2022-08-19T06:44:45;25.75;;;14.27;;
57856;SDS011;43683;48.650;9.290;2022-08-19T06:47:13;27.02;;;15.43;;
57856;SDS011;43683;48.650;9.290;2022-08-19T06:49:44;24.85;;;15.73;;
57856;SDS011;43683;48.650;9.290;2022-08-19T06:52:10;25.80;;;14.30;;
57856;SDS011;43683;48.650;9.290;2022-08-19T06:54:40;27.45;;;16.60;;
57856;SDS011;43683;48.650;9.290;2022-08-19T06:59:34;28.05;;;15.35;;
57856;SDS011;43683;48.650;9.290;2022-08-19T07:02:01;28.83;;;15.75;;
57856;SDS011;43683;48.650;9.290;2022-08-19T07:04:30;30.05;;;16.10;;
57856;SDS011;43683;48.650;9.290;2022-08-19T07:09:38;24.75;;;15.80;;
57856;SDS011;43683;48.650;9.290;2022-08-19T07:12:06;28.45;;;16.15;;
57856;SDS011;43683;48.650;9.290;2022-08-19T07:14:34;27.63;;;16.70;;
57856;SDS011;43683;48.650;9.290;2022-08-19T07:17:02;25.38;;;15.65;;
57856;SDS011;43683;48.650;9.290;2022-08-19T07:21:55;23.55;;;15.32;;
57856;SDS011;43683;48.650;9.290;2022-08-19T07:24:24;25.77;;;15.77;;
57856;SDS011;43683;48.650;9.290;2022-08-19T07:26:51;28.75;;;16.48;;
57856;SDS011;43683;48.650;9.290;2022-08-19T07:29:19;27.50;;;16.65;;
57856;SDS011;43683;48.650;9.290;2022-08-19T07:31:48;30.80;;;17.70;;
57856;SDS011;43683;48.650;9.290;2022-08-19T07:34:15;28.67;;;16.70;;
57856;SDS011;43683;48.650;9.290;2022-08-19T07:36:41;29.10;;;15.93;;
57856;SDS011;43683;48.650;9.290;2022-08-19T07:39:09;28.10;;;16.10;;
57856;SDS011;43683;48.650;9.290;2022-08-19T07:41:43;32.60;;;17.90;;
57856;SDS011;43683;48.650;9.290;2022-08-19T07:44:10;29.10;;;16.63;;
57856;SDS011;43683;48.650;9.290;2022-08-19T07:46:38;26.40;;;16.35;;
57856;SDS011;43683;48.650;9.290;2022-08-19T07:49:09;29.63;;;17.05;;
57856;SDS011;43683;48.650;9.290;2022-08-19T07:51:43;27.38;;;17.40;;
57856;SDS011;43683;48.650;9.290;2022-08-19T07:54:10;27.73;;;17.10;;
57856;SDS011;43683;48.650;9.290;2022-08-19T07:56:36;29.83;;;16.23;;
57856;SDS011;43683;48.650;9.290;2022-08-19T07:59:03;28.98;;;16.90;;
57856;SDS011;43683;48.650;9.290;2022-08-19T08:01:29;24.13;;;15.23;;
57856;SDS011;43683;48.650;9.290;2022-08-19T08:03:56;30.63;;;16.83;;
57856;SDS011;43683;48.650;9.290;2022-08-19T08:06:40;29.58;;;17.23;;
57856;SDS011;43683;48.650;9.290;2022-08-19T08:09:30;29.55;;;16.25;;
57856;SDS011;43683;48.650;9.290;2022-08-19T08:12:04;43.40;;;25.38;;
57856;SDS011;43683;48.650;9.290;2022-08-19T08:14:36;36.70;;;21.92;;
57856;SDS011;43683;48.650;9.290;2022-08-19T08:17:08;27.07;;;17.77;;
57856;SDS011;43683;48.650;9.290;2022-08-19T08:19:35;26.73;;;16.33;;
57856;SDS011;43683;48.650;9.290;2022-08-19T08:22:01;28.38;;;17.00;;
57856;SDS011;43683;48.650;9.290;2022-08-19T08:24:28;26.65;;;16.23;;
57856;SDS011;43683;48.650;9.290;2022-08-19T08:26:56;26.55;;;15.80;;
57856;SDS011;43683;48.650;9.290;2022-08-19T08:29:23;27.80;;;16.00;;
57856;SDS011;43683;48.650;9.290;2022-08-19T08:31:50;28.75;;;16.35;;
57856;SDS011;43683;48.650;9.290;2022-08-19T08:34:16;28.60;;;17.45;;
57856;SDS011;43683;48.650;9.290;2022-08-19T08:36:43;27.73;;;15.25;;
57856;SDS011;43683;48.650;9.290;2022-08-19T08:39:11;27.33;;;16.92;;
57856;SDS011;43683;48.650;9.290;2022-08-19T08:41:48;29.50;;;15.77;;
57856;SDS011;43683;48.650;9.290;2022-08-19T08:44:20;26.85;;;15.23;;
57856;SDS011;43683;48.650;9.290;2022-08-19T08:46:57;29.42;;;15.80;;
57856;SDS011;43683;48.650;9.290;2022-08-19T08:52:04;26.33;;;15.23;;
57856;SDS011;43683;48.650;9.290;2022-08-19T08:54:32;26.95;;;15.25;;
57856;SDS011;43683;48.650;9.290;2022-08-19T08:57:03;24.98;;;15.43;;
57856;SDS011;43683;48.650;9.290;2022-08-19T08:59:36;25.05;;;14.80;;
57856;SDS011;43683;48.650;9.290;2022-08-19T09:02:04;27.50;;;15.80;;
57856;SDS011;43683;48.650;9.290;2022-08-19T09:04:29;25.75;;;15.85;;
57856;SDS011;43683;48.650;9.290;2022-08-19T09:09:34;27.83;;;15.63;;
57856;SDS011;43683;48.650;9.290;2022-08-19T09:14:48;25.58;;;14.65;;
57856;SDS011;43683;48.650;9.290;2022-08-19T09:17:27;24.73;;;14.60;;
57856;SDS011;43683;48.650;9.290;2022-08-19T09:22:29;23.45;;;14.35;;
57856;SDS011;43683;48.650;9.290;2022-08-19T09:24:55;24.10;;;14.77;;
57856;SDS011;43683;48.650;9.290;2022-08-19T09:27:20;25.30;;;14.90;;
57856;SDS011;43683;48.650;9.290;2022-08-19T09:29:50;24.85;;;15.20;;
57856;SDS011;43683;48.650;9.290;2022-08-19T09:32:16;23.90;;;15.50;;
57856;SDS011;43683;48.650;9.290;2022-08-19T09:34:43;25.57;;;15.13;;
57856;SDS011;43683;48.650;9.290;2022-08-19T09:37:09;25.05;;;14.73;;
57856;SDS011;43683;48.650;9.290;2022-08-19T09:39:35;24.17;;;15.18;;
57856;SDS011;43683;48.650;9.290;2022-08-19T09:42:00;23.52;;;14.50;;
57856;SDS011;43683;48.650;9.290;2022-08-19T09:44:28;24.52;;;14.57;;
57856;SDS011;43683;48.650;9.290;2022-08-19T09:46:54;23.73;;;14.15;;
57856;SDS011;43683;48.650;9.290;2022-08-19T09:49:20;22.95;;;13.68;;
57856;SDS011;43683;48.650;9.290;2022-08-19T09:51:49;24.60;;;15.68;;
57856;SDS011;43683;48.650;9.290;2022-08-19T09:54:15;22.75;;;13.02;;
57856;SDS011;43683;48.650;9.290;2022-08-19T09:56:41;22.08;;;14.10;;
57856;SDS011;43683;48.650;9.290;2022-08-19T09:59:07;22.88;;;14.38;;
57856;SDS011;43683;48.650;9.290;2022-08-19T10:01:34;21.25;;;13.77;;
57856;SDS011;43683;48.650;9.290;2022-08-19T10:04:00;26.15;;;14.18;;
57856;SDS011;43683;48.650;9.290;2022-08-19T10:08:56;23.50;;;14.25;;
57856;SDS011;43683;48.650;9.290;2022-08-19T10:11:22;24.60;;;14.50;;
57856;SDS011;43683;48.650;9.290;2022-08-19T10:13:47;24.35;;;14.50;;
57856;SDS011;43683;48.650;9.290;2022-08-19T10:16:15;22.63;;;13.25;;
57856;SDS011;43683;48.650;9.290;2022-08-19T10:18:45;28.10;;;14.63;;
57856;SDS011;43683;48.650;9.290;2022-08-19T10:21:21;24.67;;;14.05;;
57856;SDS011;43683;48.650;9.290;2022-08-19T10:23:50;24.40;;;14.45;;
57856;SDS011;43683;48.650;9.290;2022-08-19T10:26:21;23.00;;;14.25;;
57856;SDS011;43683;48.650;9.290;2022-08-19T10:28:49;21.40;;;13.45;;
57856;SDS011;43683;48.650;9.290;2022-08-19T10:31:17;22.98;;;13.52;;
57856;SDS011;43683;48.650;9.290;2022-08-19T10:33:48;27.15;;;16.33;;
57856;SDS011;43683;48.650;9.290;2022-08-19T10:36:16;26.05;;;15.68;;
57856;SDS011;43683;48.650;9.290;2022-08-19T10:38:48;26.52;;;15.77;;
57856;SDS011;43683;48.650;9.290;2022-08-19T10:41:17;24.80;;;14.82;;
57856;SDS011;43683;48.650;9.290;2022-08-19T10:43:52;27.58;;;16.48;;
57856;SDS011;43683;48.650;9.290;2022-08-19T10:46:20;29.10;;;16.08;;
57856;SDS011;43683;48.650;9.290;2022-08-19T10:48:48;30.33;;;16.73;;
57856;SDS011;43683;48.650;9.290;2022-08-19T10:51:14;28.70;;;16.67;;
57856;SDS011;43683;48.650;9.290;2022-08-19T10:53:59;26.23;;;16.48;;
57856;SDS011;43683;48.650;9.290;2022-08-19T10:56:25;31.70;;;17.63;;
57856;SDS011;43683;48.650;9.290;2022-08-19T10:59:10;30.25;;;17.15;;
57856;SDS011;43683;48.650;9.290;2022-08-19T11:04:06;33.38;;;17.55;;
57856;SDS011;43683;48.650;9.290;2022-08-19T11:06:35;33.67;;;18.77;;
57856;SDS011;43683;48.650;9.290;2022-08-19T11:09:01;34.00;;;18.25;;
57856;SDS011;43683;48.650;9.290;2022-08-19T11:11:27;34.15;;;18.25;;
57856;SDS011;43683;48.650;9.290;2022-08-19T11:13:53;30.35;;;17.90;;
57856;SDS011;43683;48.650;9.290;2022-08-19T11:16:20;33.22;;;18.25;;
57856;SDS011;43683;48.650;9.290;2022-08-19T11:18:50;34.13;;;18.15;;
57856;SDS011;43683;48.650;9.290;2022-08-19T11:23:48;31.40;;;18.63;;
57856;SDS011;43683;48.650;9.290;2022-08-19T11:26:16;33.50;;;18.75;;
57856;SDS011;43683;48.650;9.290;2022-08-19T11:28:43;34.25;;;19.45;;
57856;SDS011;43683;48.650;9.290;2022-08-19T11:31:13;31.38;;;17.98;;
57856;SDS011;43683;48.650;9.290;2022-08-19T11:33:40;33.40;;;18.35;;
57856;SDS011;43683;48.650;9.290;2022-08-19T11:36:06;36.50;;;19.83;;
57856;SDS011;43683;48.650;9.290;2022-08-19T11:38:33;35.22;;;18.95;;
57856;SDS011;43683;48.650;9.290;2022-08-19T11:41:01;36.10;;;19.45;;
57856;SDS011;43683;48.650;9.290;2022-08-19T11:43:29;37.97;;;20.70;;
57856;SDS011;43683;48.650;9.290;2022-08-19T11:45:55;33.22;;;19.35;;
57856;SDS011;43683;48.650;9.290;2022-08-19T11:48:21;39.63;;;20.10;;
57856;SDS011;43683;48.650;9.290;2022-08-19T11:50:52;39.58;;;20.63;;
57856;SDS011;43683;48.650;9.290;2022-08-19T11:53:20;36.00;;;19.52;;
57856;SDS011;43683;48.650;9.290;2022-08-19T11:55:46;34.17;;;19.08;;
57856;SDS011;43683;48.650;9.290;2022-08-19T11:58:13;36.60;;;18.97;;
57856;SDS011;43683;48.650;9.290;2022-08-19T12:00:40;33.95;;;18.88;;
57856;SDS011;43683;48.650;9.290;2022-08-19T12:03:06;37.67;;;19.67;;
57856;SDS011;43683;48.650;9.290;2022-08-19T12:05:32;37.00;;;18.95;;
57856;SDS011;43683;48.650;9.290;2022-08-19T12:07:58;37.35;;;19.98;;
57856;SDS011;43683;48.650;9.290;2022-08-19T12:10:24;34.50;;;18.35;;
57856;SDS011;43683;48.650;9.290;2022-08-19T12:12:50;33.97;;;19.60;;
57856;SDS011;43683;48.650;9.290;2022-08-19T12:15:15;32.53;;;18.38;;
57856;SDS011;43683;48.650;9.290;2022-08-19T12:17:41;33.80;;;18.95;;
57856;SDS011;43683;48.650;9.290;2022-08-19T12:20:08;34.05;;;18.73;;
57856;SDS011;43683;48.650;9.290;2022-08-19T12:22:35;35.50;;;18.77;;
57856;SDS011;43683;48.650;9.290;2022-08-19T12:25:02;32.75;;;18.10;;
57856;SDS011;43683;48.650;9.290;2022-08-19T12:27:29;33.78;;;18.83;;
57856;SDS011;43683;48.650;9.290;2022-08-19T12:29:55;39.17;;;20.08;;
57856;SDS011;43683;48.650;9.290;2022-08-19T12:32:21;36.42;;;20.58;;
57856;SDS011;43683;48.650;9.290;2022-08-19T12:34:47;34.92;;;19.20;;
57856;SDS011;43683;48.650;9.290;2022-08-19T12:37:13;36.58;;;19.25;;
57856;SDS011;43683;48.650;9.290;2022-08-19T12:39:40;33.38;;;19.88;;
57856;SDS011;43683;48.650;9.290;2022-08-19T12:42:06;34.35;;;17.77;;
57856;SDS011;43683;48.650;9.290;2022-08-19T12:44:33;37.70;;;18.90;;
57856;SDS011;43683;48.650;9.290;2022-08-19T12:47:00;35.28;;;19.30;;
57856;SDS011;43683;48.650;9.290;2022-08-19T12:49:29;43.40;;;21.27;;
57856;SDS011;43683;48.650;9.290;2022-08-19T12:51:56;38.03;;;19.52;;
57856;SDS011;43683;48.650;9.290;2022-08-19T12:54:23;34.30;;;18.77;;
57856;SDS011;43683;48.650;9.290;2022-08-19T12:56:48;38.45;;;19.95;;
57856;SDS011;43683;48.650;9.290;2022-08-19T12:59:14;35.83;;;19.98;;
57856;SDS011;43683;48.650;9.290;2022-08-19T13:01:42;34.60;;;19.45;;
57856;SDS011;43683;48.650;9.290;2022-08-19T13:04:09;36.40;;;19.55;;
57856;SDS011;43683;48.650;9.290;2022-08-19T13:06:35;34.50;;;20.17;;
57856;SDS011;43683;48.650;9.290;2022-08-19T13:09:01;39.53;;;20.10;;
57856;SDS011;43683;48.650;9.290;2022-08-19T13:11:27;35.63;;;19.08;;
57856;SDS011;43683;48.650;9.290;2022-08-19T13:13:57;37.88;;;20.42;;
57856;SDS011;43683;48.650;9.290;2022-08-19T13:16:23;35.35;;;20.35;;
57856;SDS011;43683;48.650;9.290;2022-08-19T13:18:49;33.60;;;18.60;;
57856;SDS011;43683;48.650;9.290;2022-08-19T13:21:18;33.42;;;18.77;;
57856;SDS011;43683;48.650;9.290;2022-08-19T13:23:46;33.50;;;18.83;;
57856;SDS011;43683;48.650;9.290;2022-08-19T13:26:12;28.02;;;17.25;;
57856;SDS011;43683;48.650;9.290;2022-08-19T13:28:38;27.95;;;17.00;;
57856;SDS011;43683;48.650;9.290;2022-08-19T13:31:24;30.88;;;18.88;;
57856;SDS011;43683;48.650;9.290;2022-08-19T13:34:09;30.45;;;17.90;;
57856;SDS011;43683;48.650;9.290;2022-08-19T13:36:35;31.83;;;18.00;;
57856;SDS011;43683;48.650;9.290;2022-08-19T13:39:02;30.90;;;16.90;;
57856;SDS011;43683;48.650;9.290;2022-08-19T13:41:28;31.13;;;17.58;;
57856;SDS011;43683;48.650;9.290;2022-08-19T13:43:54;27.80;;;16.83;;
57856;SDS011;43683;48.650;9.290;2022-08-19T13:46:19;32.08;;;18.55;;
57856;SDS011;43683;48.650;9.290;2022-08-19T13:48:45;30.23;;;18.23;;
57856;SDS011;43683;48.650;9.290;2022-08-19T13:51:13;30.20;;;17.60;;
57856;SDS011;43683;48.650;9.290;2022-08-19T13:53:41;27.60;;;16.00;;
57856;SDS011;43683;48.650;9.290;2022-08-19T13:56:11;31.60;;;17.77;;
57856;SDS011;43683;48.650;9.290;2022-08-19T13:58:39;27.75;;;16.70;;
57856;SDS011;43683;48.650;9.290;2022-08-19T14:01:05;27.90;;;16.63;;
57856;SDS011;43683;48.650;9.290;2022-08-19T14:03:32;27.58;;;16.88;;
57856;SDS011;43683;48.650;9.290;2022-08-19T14:08:25;27.05;;;15.68;;
57856;SDS011;43683;48.650;9.290;2022-08-19T14:10:52;24.45;;;14.55;;
57856;SDS011;43683;48.650;9.290;2022-08-19T14:13:19;27.65;;;16.77;;
57856;SDS011;43683;48.650;9.290;2022-08-19T14:15:46;27.27;;;16.65;;
57856;SDS011;43683;48.650;9.290;2022-08-19T14:18:12;27.42;;;16.70;;
57856;SDS011;43683;48.650;9.290;2022-08-19T14:20:39;27.33;;;16.70;;
57856;SDS011;43683;48.650;9.290;2022-08-19T14:23:05;30.52;;;17.83;;
57856;SDS011;43683;48.650;9.290;2022-08-19T14:25:31;27.00;;;16.95;;
57856;SDS011;43683;48.650;9.290;2022-08-19T14:27:57;26.13;;;15.90;;
57856;SDS011;43683;48.650;9.290;2022-08-19T14:30:31;29.08;;;16.48;;
57856;SDS011;43683;48.650;9.290;2022-08-19T14:32:59;28.05;;;16.48;;
57856;SDS011;43683;48.650;9.290;2022-08-19T14:35:27;29.48;;;16.90;;
57856;SDS011;43683;48.650;9.290;2022-08-19T14:37:55;26.75;;;15.88;;
57856;SDS011;43683;48.650;9.290;2022-08-19T14:40:22;26.40;;;15.70;;
57856;SDS011;43683;48.650;9.290;2022-08-19T14:42:54;29.95;;;17.02;;
57856;SDS011;43683;48.650;9.290;2022-08-19T14:45:25;27.75;;;16.95;;
57856;SDS011;43683;48.650;9.290;2022-08-19T14:50:17;29.52;;;16.67;;
57856;SDS011;43683;48.650;9.290;2022-08-19T14:52:44;28.48;;;17.77;;
57856;SDS011;43683;48.650;9.290;2022-08-19T14:55:12;26.85;;;16.45;;
57856;SDS011;43683;48.650;9.290;2022-08-19T14:57:40;29.17;;;17.77;;
57856;SDS011;43683;48.650;9.290;2022-08-19T15:02:36;26.98;;;16.83;;
57856;SDS011;43683;48.650;9.290;2022-08-19T15:05:02;31.77;;;17.60;;
57856;SDS011;43683;48.650;9.290;2022-08-19T15:07:27;26.92;;;17.00;;